createdAt,value
2023-01-13T00:00:15.307Z,97.73
2023-01-13T00:02:41.860Z,96.84
2023-01-13T00:05:09.665Z,96.57
2023-01-13T00:07:36.225Z,96.09
2023-01-13T00:10:02.677Z,95.61
2023-01-13T00:12:29.190Z,95.24
2023-01-13T00:14:55.704Z,94.19
2023-01-13T00:17:22.651Z,94.79
2023-01-13T00:19:49.234Z,93.90
2023-01-13T00:22:15.684Z,93.36
2023-01-13T00:24:42.117Z,94.01
2023-01-13T00:27:08.599Z,94.83
2023-01-13T00:29:35.045Z,95.09
2023-01-13T00:32:01.544Z,94.86
2023-01-13T00:34:28.084Z,94.73
2023-01-13T00:36:54.614Z,94.83
2023-01-13T00:39:21.160Z,95.60
2023-01-13T00:42:06.062Z,95.54
2023-01-13T00:44:32.554Z,95.84
2023-01-13T00:46:59.027Z,96.21
2023-01-13T00:49:25.770Z,96.95
2023-01-13T00:51:52.270Z,97.31
2023-01-13T00:54:18.794Z,97.60
2023-01-13T00:56:45.217Z,98.23
2023-01-13T00:59:13.493Z,98.21
2023-01-13T01:01:41.199Z,98.56
2023-01-13T01:04:07.910Z,99.30
2023-01-13T01:06:34.493Z,99.43
2023-01-13T01:09:01.003Z,100.00
2023-01-13T01:11:29.981Z,99.92
2023-01-13T01:13:58.434Z,99.56
2023-01-13T01:16:28.038Z,99.40
2023-01-13T01:18:54.858Z,99.84
2023-01-13T01:21:23.150Z,99.24
2023-01-13T01:23:49.656Z,99.39
2023-01-13T01:26:23.987Z,99.41
2023-01-13T01:28:50.667Z,99.02
2023-01-13T01:31:24.217Z,99.74
2023-01-13T01:33:51.587Z,99.96
2023-01-13T01:36:19.833Z,99.96
2023-01-13T01:38:46.953Z,99.61
2023-01-13T01:41:16.328Z,99.78
2023-01-13T01:44:03.857Z,99.35
2023-01-13T01:46:39.058Z,99.56
2023-01-13T01:49:09.210Z,99.36
2023-01-13T01:51:41.512Z,98.74
2023-01-13T01:54:11.314Z,97.92
2023-01-13T01:56:41.761Z,97.85
2023-01-13T01:59:08.810Z,97.84
2023-01-13T02:01:35.498Z,98.33
2023-01-13T02:04:09.611Z,97.53
2023-01-13T02:06:36.596Z,98.00
2023-01-13T02:09:03.620Z,97.37
2023-01-13T02:11:53.577Z,97.65
2023-01-13T02:14:25.214Z,97.59
2023-01-13T02:17:10.577Z,96.69
2023-01-13T02:20:08.364Z,96.48
2023-01-13T02:22:56.237Z,95.53
2023-01-13T02:25:31.524Z,95.47
2023-01-13T02:28:25.958Z,94.71
2023-01-13T02:31:18.669Z,93.92
2023-01-13T02:33:52.569Z,94.20
2023-01-13T02:36:37.645Z,94.38
2023-01-13T02:39:12.183Z,94.68
2023-01-13T02:42:15.724Z,94.04
2023-01-13T02:45:02.208Z,93.25
2023-01-13T02:47:33.755Z,92.55
2023-01-13T02:50:08.875Z,93.44
2023-01-13T02:52:43.128Z,92.28
2023-01-13T02:55:18.478Z,91.97
2023-01-13T02:57:46.770Z,92.15
2023-01-13T03:00:15.477Z,90.95
2023-01-13T03:02:41.944Z,91.36
2023-01-13T03:05:14.862Z,91.18
2023-01-13T03:08:10.615Z,90.49
2023-01-13T03:11:02.996Z,90.19
2023-01-13T03:13:57.141Z,90.49
2023-01-13T03:16:45.490Z,90.44
2023-01-13T03:19:11.916Z,90.41
2023-01-13T03:21:59.789Z,90.46
2023-01-13T03:24:38.644Z,90.23
2023-01-13T03:27:05.098Z,90.51
2023-01-13T03:29:41.089Z,91.08
2023-01-13T03:32:17.962Z,91.02
2023-01-13T03:34:51.674Z,90.97
2023-01-13T03:37:22.760Z,90.23
2023-01-13T03:39:55.366Z,90.92
2023-01-13T03:42:25.235Z,91.16
2023-01-13T03:44:51.631Z,91.08
2023-01-13T03:47:33.327Z,90.75
2023-01-13T03:50:07.243Z,90.81
2023-01-13T03:52:41.595Z,91.18
2023-01-13T03:55:11.929Z,91.25
2023-01-13T03:58:03.426Z,90.82
2023-01-13T04:00:37.479Z,90.24
2023-01-13T04:03:15.251Z,90.77
2023-01-13T04:05:47.395Z,90.64
2023-01-13T04:08:28.143Z,91.14
2023-01-13T04:11:06.686Z,91.61
2023-01-13T04:13:38.151Z,91.10
2023-01-13T04:16:07.217Z,91.35
2023-01-13T04:18:37.698Z,91.12
2023-01-13T04:21:07.874Z,90.17
2023-01-13T04:23:34.708Z,90.36
2023-01-13T04:26:01.178Z,90.74
2023-01-13T04:28:27.709Z,90.77
2023-01-13T04:30:54.272Z,89.82
2023-01-13T04:33:20.809Z,89.45
2023-01-13T04:35:47.986Z,89.59
2023-01-13T04:38:17.637Z,89.04
2023-01-13T04:40:44.214Z,87.73
2023-01-13T04:43:11.055Z,87.89
2023-01-13T04:45:38.030Z,87.49
2023-01-13T04:48:05.302Z,87.23
2023-01-13T04:50:31.810Z,87.59
2023-01-13T04:52:58.320Z,87.43
2023-01-13T04:55:25.262Z,87.32
2023-01-13T04:57:52.086Z,87.13
2023-01-13T05:00:21.125Z,87.01
2023-01-13T05:02:50.095Z,87.24
2023-01-13T05:05:16.904Z,86.96
2023-01-13T05:07:43.383Z,86.87
2023-01-13T05:10:10.558Z,86.53
2023-01-13T05:12:55.455Z,86.78
2023-01-13T05:15:40.411Z,86.95
2023-01-13T05:18:07.086Z,87.32
2023-01-13T05:20:33.572Z,87.18
2023-01-13T05:23:18.385Z,88.10
2023-01-13T05:25:48.172Z,87.87
2023-01-13T05:28:15.114Z,88.30
2023-01-13T05:30:47.169Z,88.75
2023-01-13T05:33:16.545Z,89.57
2023-01-13T05:35:45.895Z,89.98
2023-01-13T05:38:13.227Z,89.93
2023-01-13T05:40:59.635Z,89.83
2023-01-13T05:43:27.080Z,90.12
2023-01-13T05:46:09.951Z,90.86
2023-01-13T05:48:38.917Z,91.02
2023-01-13T05:51:08.154Z,90.42
2023-01-13T05:53:35.253Z,90.11
2023-01-13T05:56:05.227Z,89.88
2023-01-13T05:58:31.939Z,90.23
2023-01-13T06:01:06.247Z,90.34
2023-01-13T06:03:32.903Z,90.40
2023-01-13T06:06:01.669Z,90.17
2023-01-13T06:08:28.981Z,89.56
2023-01-13T06:10:55.482Z,89.58
2023-01-13T06:13:22.959Z,89.79
2023-01-13T06:15:49.453Z,90.15
2023-01-13T06:18:15.958Z,89.79
2023-01-13T06:20:42.460Z,89.70
2023-01-13T06:23:10.851Z,89.79
2023-01-13T06:25:56.495Z,89.39
2023-01-13T06:28:22.962Z,89.86
2023-01-13T06:30:53.972Z,89.39
2023-01-13T06:33:26.884Z,89.27
2023-01-13T06:35:58.174Z,89.15
2023-01-13T06:38:28.670Z,89.11
2023-01-13T06:40:55.282Z,88.55
2023-01-13T06:43:22.068Z,87.97
2023-01-13T06:45:52.967Z,88.22
2023-01-13T06:48:32.833Z,87.63
2023-01-13T06:50:59.777Z,87.33
2023-01-13T06:53:26.294Z,88.29
2023-01-13T06:55:52.760Z,87.72
2023-01-13T06:58:19.242Z,88.51
2023-01-13T07:00:49.639Z,88.86
2023-01-13T07:03:17.588Z,89.25
2023-01-13T07:05:51.704Z,89.52
2023-01-13T07:08:18.160Z,89.40
2023-01-13T07:10:44.715Z,89.76
2023-01-13T07:13:29.405Z,89.69
2023-01-13T07:16:01.511Z,89.38
2023-01-13T07:18:31.571Z,89.18
2023-01-13T07:21:00.402Z,88.89
2023-01-13T07:23:29.465Z,89.55
2023-01-13T07:25:57.631Z,88.21
2023-01-13T07:28:25.421Z,88.38
2023-01-13T07:30:52.312Z,88.07
2023-01-13T07:33:19.255Z,88.21
2023-01-13T07:35:46.566Z,87.12
2023-01-13T07:38:13.166Z,87.54
2023-01-13T07:40:40.616Z,86.76
2023-01-13T07:43:25.606Z,86.53
2023-01-13T07:46:04.622Z,86.41
2023-01-13T07:48:33.053Z,86.05
2023-01-13T07:51:04.209Z,85.11
2023-01-13T07:53:31.118Z,83.91
2023-01-13T07:55:58.953Z,84.14
2023-01-13T07:58:26.727Z,84.23
2023-01-13T08:00:54.048Z,83.60
2023-01-13T08:03:21.415Z,82.79
2023-01-13T08:05:48.381Z,82.94
2023-01-13T08:08:15.797Z,82.92
2023-01-13T08:10:42.341Z,82.86
2023-01-13T08:13:22.576Z,83.04
2023-01-13T08:15:52.172Z,82.78
2023-01-13T08:18:22.208Z,82.88
2023-01-13T08:20:52.928Z,82.69
2023-01-13T08:23:20.628Z,83.01
2023-01-13T08:25:47.419Z,82.56
2023-01-13T08:28:15.739Z,82.96
2023-01-13T08:30:42.835Z,83.21
2023-01-13T08:33:11.867Z,83.17
2023-01-13T08:35:42.174Z,82.88
2023-01-13T08:38:09.478Z,84.52
2023-01-13T08:40:36.550Z,85.16
2023-01-13T08:43:03.482Z,85.91
2023-01-13T08:45:30.054Z,86.55
2023-01-13T08:47:56.628Z,86.57
2023-01-13T08:50:23.441Z,87.51
2023-01-13T08:52:49.949Z,88.32
2023-01-13T08:55:16.434Z,88.86
2023-01-13T08:57:42.956Z,89.17
2023-01-13T09:00:10.289Z,90.12
2023-01-13T09:02:38.405Z,92.10
2023-01-13T09:05:07.411Z,92.19
2023-01-13T09:07:38.318Z,92.79
2023-01-13T09:10:07.453Z,93.00
2023-01-13T09:12:52.358Z,92.25
2023-01-13T09:15:19.071Z,92.51
2023-01-13T09:17:45.855Z,92.78
2023-01-13T09:20:13.262Z,92.92
2023-01-13T09:22:40.661Z,92.71
2023-01-13T09:25:07.751Z,93.17
2023-01-13T09:27:34.269Z,92.76
2023-01-13T09:30:00.798Z,93.91
2023-01-13T09:32:27.330Z,94.10
2023-01-13T09:35:02.971Z,94.81
2023-01-13T09:37:36.654Z,93.68
2023-01-13T09:40:16.747Z,94.64
2023-01-13T09:43:13.352Z,94.33
2023-01-13T09:45:55.924Z,94.71
2023-01-13T09:48:29.741Z,93.81
2023-01-13T09:50:59.001Z,93.12
2023-01-13T09:53:30.362Z,92.21
2023-01-13T09:55:57.021Z,92.34
2023-01-13T09:58:24.874Z,92.18
2023-01-13T10:00:59.276Z,91.43
2023-01-13T10:03:30.382Z,91.65
2023-01-13T10:06:47.966Z,91.17
2023-01-13T10:09:21.264Z,90.37
2023-01-13T10:12:10.155Z,91.44
2023-01-13T10:14:54.311Z,92.15
